Time,TemperatureF,DewpointF,PressureIn,WindDirection,WindDirectionDegrees,WindSpeedMPH,WindSpeedGustMPH,Humidity,HourlyPrecipIn,Conditions,Clouds,dailyrainin,SolarRadiationWatts/m^2,SoftwareType,DateUTC
2013-02-04 00:07:00,43.2,15.4,29.71,NW,315,0.0,0.0,23,0.00,,,-99.99,0.0,Linux-Irox,2013-02-04 08:07:00,
2013-02-04 00:17:00,43.2,14.7,29.71,ENE,67,0.0,0.0,21,0.00,,,-99.99,0.0,Linux-Irox,2013-02-04 08:17:00,
2013-02-04 00:27:00,42.6,14.2,29.71,NNE,22,0.0,0.0,21,0.00,,,-99.99,0.0,Linux-Irox,2013-02-04 08:27:00,
2013-02-04 00:37:00,43.2,13.6,29.71,North,0,0.0,0.0,18,0.00,,,-99.99,0.0,Linux-Irox,2013-02-04 08:37:00,
2013-02-04 00:47:00,43.0,13.5,29.71,NNE,22,0.0,0.0,18,0.00,,,-99.99,0.0,Linux-Irox,2013-02-04 08:47:00,
2013-02-04 00:57:00,42.8,13.3,29.71,NNW,337,0.0,0.0,18,0.00,,,-99.99,0.0,Linux-Irox,2013-02-04 08:57:00,
2013-02-04 01:07:00,42.6,12.0,29.71,NE,45,0.0,0.0,15,0.00,,,-99.99,0.0,Linux-Irox,2013-02-04 09:07:00,
2013-02-04 01:17:00,42.1,11.5,29.70,SSE,157,0.0,0.0,15,0.00,,,-99.99,0.0,Linux-Irox,2013-02-04 09:17:00,
2013-02-04 01:27:00,41.4,12.2,29.70,NNE,22,0.0,0.0,19,0.00,,,-99.99,0.0,Linux-Irox,2013-02-04 09:27:00,
2013-02-04 01:37:00,40.5,11.7,29.71,NNE,22,0.0,0.0,20,0.00,,,-99.99,0.0,Linux-Irox,2013-02-04 09:37:00,
2013-02-04 01:47:00,41.2,12.0,29.71,NNE,22,0.0,0.0,19,0.00,,,-99.99,0.0,Linux-Irox,2013-02-04 09:47:00,
2013-02-04 01:57:00,40.8,12.0,29.72,NE,45,0.0,0.0,20,0.00,,,-99.99,0.0,Linux-Irox,2013-02-04 09:57:00,
2013-02-04 02:07:00,42.3,13.1,29.72,West,270,0.0,0.0,19,0.00,,,-99.99,0.0,Linux-Irox,2013-02-04 10:07:00,
2013-02-04 02:17:00,41.5,12.4,29.72,NE,45,0.0,0.0,19,0.00,,,-99.99,0.0,Linux-Irox,2013-02-04 10:17:00,
2013-02-04 02:27:00,42.1,11.5,29.72,ENE,67,0.0,0.0,15,0.00,,,-99.99,0.0,Linux-Irox,2013-02-04 10:27:00,
2013-02-04 02:37:00,42.8,12.2,29.71,West,270,0.0,0.0,15,0.00,,,-99.99,0.0,Linux-Irox,2013-02-04 10:37:00,
2013-02-04 02:47:00,42.8,12.2,29.71,SW,225,0.0,0.0,15,0.00,,,-99.99,0.0,Linux-Irox,2013-02-04 10:47:00,
2013-02-04 02:57:00,42.3,11.7,29.71,NNE,22,0.0,0.0,15,0.00,,,-99.99,0.0,Linux-Irox,2013-02-04 10:57:00,
2013-02-04 03:07:00,41.9,11.3,29.71,West,270,0.0,0.0,15,0.00,,,-99.99,0.0,Linux-Irox,2013-02-04 11:07:00,
2013-02-04 03:17:00,41.7,11.1,29.70,WSW,247,0.0,0.0,15,0.00,,,-99.99,0.0,Linux-Irox,2013-02-04 11:17:00,
2013-02-04 03:27:00,41.7,10.4,29.70,NE,45,0.0,0.0,13,0.00,,,-99.99,0.0,Linux-Irox,2013-02-04 11:27:00,
2013-02-04 03:37:00,41.7,10.4,29.70,West,270,0.0,0.0,13,0.00,,,-99.99,0.0,Linux-Irox,2013-02-04 11:37:00,
2013-02-04 03:47:00,40.8,9.9,29.70,West,270,0.0,0.0,14,0.00,,,-99.99,0.0,Linux-Irox,2013-02-04 11:47:00,
2013-02-04 03:57:00,40.5,9.5,29.71,ENE,67,0.0,0.0,14,0.00,,,-99.99,0.0,Linux-Irox,2013-02-04 11:57:00,
2013-02-04 04:07:00,41.0,9.7,29.71,ENE,67,0.0,0.0,13,0.00,,,-99.99,0.0,Linux-Irox,2013-02-04 12:07:00,
2013-02-04 04:17:00,41.0,9.7,29.71,NNE,22,0.0,0.0,13,0.00,,,-99.99,0.0,Linux-Irox,2013-02-04 12:17:00,
2013-02-04 04:27:00,40.3,9.3,29.71,NE,45,0.0,0.0,14,0.00,,,-99.99,0.0,Linux-Irox,2013-02-04 12:27:00,
2013-02-04 04:37:00,40.1,9.1,29.70,ENE,67,0.0,0.0,14,0.00,,,-99.99,0.0,Linux-Irox,2013-02-04 12:37:00,
2013-02-04 04:47:00,39.2,8.2,29.70,NNE,22,0.0,0.0,14,0.00,,,-99.99,0.0,Linux-Irox,2013-02-04 12:47:00,
2013-02-04 04:57:00,38.8,7.9,29.69,East,90,0.0,0.0,14,0.00,,,-99.99,0.0,Linux-Irox,2013-02-04 12:57:00,
2013-02-04 05:07:00,38.8,7.9,29.69,West,270,0.0,0.0,14,0.00,,,-99.99,0.0,Linux-Irox,2013-02-04 13:07:00,
2013-02-04 05:17:00,39.2,8.2,29.69,NE,45,0.0,0.0,14,0.00,,,-99.99,0.0,Linux-Irox,2013-02-04 13:17:00,
2013-02-04 05:27:00,40.3,9.3,29.69,West,270,0.0,0.0,14,0.00,,,-99.99,0.0,Linux-Irox,2013-02-04 13:27:00,
2013-02-04 05:37:00,40.8,9.9,29.69,NNE,22,0.0,0.0,14,0.00,,,-99.99,0.0,Linux-Irox,2013-02-04 13:37:00,
2013-02-04 05:47:00,42.3,10.9,29.69,NE,45,0.0,0.0,13,0.00,,,-99.99,0.0,Linux-Irox,2013-02-04 13:47:00,
2013-02-04 05:57:00,42.4,11.1,29.69,East,90,0.0,0.0,13,0.00,,,-99.99,0.0,Linux-Irox,2013-02-04 13:57:00,
2013-02-04 06:07:00,42.3,10.9,29.69,ENE,67,0.0,0.0,13,0.00,,,-99.99,0.0,Linux-Irox,2013-02-04 14:07:00,
2013-02-04 06:17:00,42.3,10.9,29.68,NE,45,0.0,0.0,13,0.00,,,-99.99,0.0,Linux-Irox,2013-02-04 14:17:00,
2013-02-04 06:27:00,41.9,10.6,29.68,NNE,22,0.0,0.0,13,0.00,,,-99.99,0.0,Linux-Irox,2013-02-04 14:27:00,
2013-02-04 06:31:00,41.5,9.5,29.68,NNW,337,0.0,0.0,11,0.00,,,-99.99,0.0,Linux-Irox,2013-02-04 14:31:00,
2013-02-04 06:37:00,41.5,9.5,29.69,ENE,67,0.0,0.0,11,0.00,,,-99.99,0.0,Linux-Irox,2013-02-04 14:37:00,
2013-02-04 06:46:00,40.6,9.7,29.69,NNE,22,0.0,0.0,14,0.00,,,-99.99,0.0,Linux-Irox,2013-02-04 14:46:00,
2013-02-04 06:47:00,40.5,9.5,29.69,ENE,67,0.0,0.0,14,0.00,,,-99.99,0.0,Linux-Irox,2013-02-04 14:47:00,
2013-02-04 06:57:00,40.3,9.3,29.70,ENE,67,0.0,0.0,14,0.00,,,-99.99,0.0,Linux-Irox,2013-02-04 14:57:00,
2013-02-04 07:01:00,40.1,9.1,29.70,NE,45,0.0,0.0,14,0.00,,,-99.99,0.0,Linux-Irox,2013-02-04 15:01:00,
2013-02-04 07:07:00,40.1,8.1,29.70,NNE,22,0.0,0.0,11,0.00,,,-99.99,0.0,Linux-Irox,2013-02-04 15:07:00,
2013-02-04 07:16:00,40.3,9.3,29.70,ENE,67,0.0,0.0,14,0.00,,,-99.99,0.0,Linux-Irox,2013-02-04 15:16:00,
2013-02-04 07:17:00,40.3,9.3,29.69,NNE,22,0.0,0.0,14,0.00,,,-99.99,0.0,Linux-Irox,2013-02-04 15:17:00,
2013-02-04 07:27:00,39.7,8.8,29.69,ENE,67,0.0,0.0,14,0.00,,,-99.99,0.0,Linux-Irox,2013-02-04 15:27:00,
2013-02-04 07:31:00,39.9,9.0,29.69,NNE,22,0.0,0.0,14,0.00,,,-99.99,0.0,Linux-Irox,2013-02-04 15:31:00,
2013-02-04 07:37:00,40.3,9.3,29.70,NE,45,0.0,0.0,14,0.00,,,-99.99,0.0,Linux-Irox,2013-02-04 15:37:00,
2013-02-04 07:46:00,40.8,9.9,29.70,ESE,112,0.0,0.0,14,0.00,,,-99.99,0.0,Linux-Irox,2013-02-04 15:46:00,
2013-02-04 07:47:00,41.0,9.7,29.70,ESE,112,0.0,0.0,13,0.00,,,-99.99,0.0,Linux-Irox,2013-02-04 15:47:00,
2013-02-04 07:57:00,41.7,10.4,29.70,SSE,157,0.0,0.0,13,0.00,,,-99.99,0.0,Linux-Irox,2013-02-04 15:57:00,
2013-02-04 08:01:00,42.1,10.8,29.70,ENE,67,0.0,0.0,13,0.00,,,-99.99,0.0,Linux-Irox,2013-02-04 16:01:00,
2013-02-04 08:07:00,42.6,11.3,29.70,ENE,67,0.0,0.0,13,0.00,,,-99.99,0.0,Linux-Irox,2013-02-04 16:07:00,
2013-02-04 08:16:00,43.7,12.4,29.70,East,90,0.0,0.0,13,0.00,,,-99.99,0.0,Linux-Irox,2013-02-04 16:16:00,
2013-02-04 08:17:00,43.7,12.4,29.70,East,90,0.0,0.0,13,0.00,,,-99.99,0.0,Linux-Irox,2013-02-04 16:17:00,
2013-02-04 08:27:00,45.7,13.6,29.70,ENE,67,0.0,0.0,11,0.00,,,-99.99,0.0,Linux-Irox,2013-02-04 16:27:00,
2013-02-04 08:31:00,46.2,14.2,29.70,ESE,112,0.0,0.0,11,0.00,,,-99.99,0.0,Linux-Irox,2013-02-04 16:31:00,
2013-02-04 08:37:00,46.6,14.2,29.70,WSW,247,0.0,0.0,10,0.00,,,-99.99,0.0,Linux-Irox,2013-02-04 16:37:00,
2013-02-04 08:46:00,48.6,16.9,29.70,SE,135,0.0,0.0,12,0.00,,,-99.99,0.0,Linux-Irox,2013-02-04 16:46:00,
2013-02-04 08:47:00,49.5,17.8,29.70,ESE,112,0.0,0.0,12,0.00,,,-99.99,0.0,Linux-Irox,2013-02-04 16:47:00,
2013-02-04 08:57:00,51.1,18.3,29.70,ESE,112,0.2,0.0,9,0.00,,,-99.99,0.0,Linux-Irox,2013-02-04 16:57:00,
2013-02-04 09:01:00,51.8,18.7,29.70,ESE,112,0.2,0.0,8,0.00,,,-99.99,0.0,Linux-Irox,2013-02-04 17:01:00,
2013-02-04 09:07:00,53.2,20.1,29.70,East,90,0.0,0.0,8,0.00,,,-99.99,0.0,Linux-Irox,2013-02-04 17:07:00,
2013-02-04 09:16:00,54.3,20.5,29.70,ESE,112,0.4,2.5,6,0.00,,,-99.99,0.0,Linux-Irox,2013-02-04 17:16:00,
2013-02-04 09:17:00,54.3,20.5,29.72,East,90,0.2,1.1,6,0.00,,,-99.99,0.0,Linux-Irox,2013-02-04 17:17:00,
2013-02-04 09:27:00,56.1,22.3,29.72,SE,135,0.2,0.0,6,0.00,,,-99.99,0.0,Linux-Irox,2013-02-04 17:27:00,
2013-02-04 09:31:00,56.8,22.6,29.72,East,90,0.0,0.0,5,0.00,,,-99.99,0.0,Linux-Irox,2013-02-04 17:31:00,
2013-02-04 09:37:00,56.8,22.6,29.71,SE,135,0.0,1.3,5,0.00,,,-99.99,0.0,Linux-Irox,2013-02-04 17:37:00,
2013-02-04 09:46:00,58.8,24.6,29.71,SE,135,2.0,2.7,5,0.00,,,-99.99,0.0,Linux-Irox,2013-02-04 17:46:00,
2013-02-04 09:47:00,59.0,24.8,29.71,SE,135,0.9,1.1,5,0.00,,,-99.99,0.0,Linux-Irox,2013-02-04 17:47:00,
2013-02-04 09:57:00,59.2,25.0,29.71,South,180,0.4,1.8,5,0.00,,,-99.99,0.0,Linux-Irox,2013-02-04 17:57:00,
2013-02-04 10:02:00,60.3,26.1,29.71,South,180,0.9,2.7,5,0.00,,,-99.99,0.0,Linux-Irox,2013-02-04 18:02:00,
2013-02-04 10:07:00,61.5,27.3,29.71,NW,315,0.2,0.0,5,0.00,,,-99.99,0.0,Linux-Irox,2013-02-04 18:07:00,
2013-02-04 10:16:00,61.7,27.5,29.71,SE,135,1.1,2.9,5,0.00,,,-99.99,0.0,Linux-Irox,2013-02-04 18:16:00,
2013-02-04 10:17:00,61.7,27.5,29.71,SSW,202,0.7,0.0,5,0.00,,,-99.99,0.0,Linux-Irox,2013-02-04 18:17:00,
2013-02-04 10:27:00,61.0,26.8,29.71,NE,45,0.7,0.0,5,0.00,,,-99.99,0.0,Linux-Irox,2013-02-04 18:27:00,
2013-02-04 10:31:00,61.7,27.5,29.71,SE,135,1.3,2.5,5,0.00,,,-99.99,0.0,Linux-Irox,2013-02-04 18:31:00,
2013-02-04 10:37:00,62.4,28.2,29.71,South,180,0.0,1.3,5,0.00,,,-99.99,0.0,Linux-Irox,2013-02-04 18:37:00,
2013-02-04 10:46:00,63.1,28.9,29.71,SW,225,1.3,0.0,5,0.00,,,-99.99,0.0,Linux-Irox,2013-02-04 18:46:00,
2013-02-04 10:47:00,63.3,29.1,29.71,West,270,0.7,2.9,5,0.00,,,-99.99,0.0,Linux-Irox,2013-02-04 18:47:00,
2013-02-04 10:57:00,64.0,29.8,29.70,WSW,247,1.8,2.0,5,0.00,,,-99.99,0.0,Linux-Irox,2013-02-04 18:57:00,
2013-02-04 11:01:00,64.0,29.8,29.70,WSW,247,3.8,5.6,5,0.00,,,-99.99,0.0,Linux-Irox,2013-02-04 19:01:00,
2013-02-04 11:07:00,63.9,29.7,29.70,West,270,1.8,1.8,5,0.00,,,-99.99,0.0,Linux-Irox,2013-02-04 19:07:00,
2013-02-04 11:16:00,63.5,29.3,29.70,West,270,3.3,4.2,5,0.00,,,-99.99,0.0,Linux-Irox,2013-02-04 19:16:00,
2013-02-04 11:17:00,63.5,29.3,29.69,WSW,247,1.6,2.9,5,0.00,,,-99.99,0.0,Linux-Irox,2013-02-04 19:17:00,
2013-02-04 11:27:00,64.9,30.7,29.69,SSE,157,1.8,1.8,5,0.00,,,-99.99,0.0,Linux-Irox,2013-02-04 19:27:00,
2013-02-04 11:31:00,65.3,31.1,29.69,WSW,247,2.9,6.2,5,0.00,,,-99.99,0.0,Linux-Irox,2013-02-04 19:31:00,
2013-02-04 11:37:00,65.3,31.1,29.69,SW,225,2.0,2.9,5,0.00,,,-99.99,0.0,Linux-Irox,2013-02-04 19:37:00,
2013-02-04 11:46:00,65.3,31.1,29.69,WNW,292,4.7,0.0,5,0.00,,,-99.99,0.0,Linux-Irox,2013-02-04 19:46:00,
2013-02-04 11:47:00,65.1,30.9,29.69,WSW,247,2.0,3.1,5,0.00,,,-99.99,0.0,Linux-Irox,2013-02-04 19:47:00,
2013-02-04 11:57:00,65.3,31.1,29.68,WSW,247,1.8,2.7,5,0.00,,,-99.99,0.0,Linux-Irox,2013-02-04 19:57:00,
2013-02-04 12:01:00,65.1,30.9,29.68,SSW,202,5.1,0.0,5,0.00,,,-99.99,0.0,Linux-Irox,2013-02-04 20:01:00,
2013-02-04 12:07:00,65.1,30.9,29.68,SSW,202,2.2,0.0,5,0.00,,,-99.99,0.0,Linux-Irox,2013-02-04 20:07:00,
2013-02-04 12:16:00,64.9,30.7,29.68,WSW,247,2.2,2.5,5,0.00,,,-99.99,0.0,Linux-Irox,2013-02-04 20:16:00,
2013-02-04 12:17:00,64.9,30.7,29.68,ENE,67,1.3,0.0,5,0.00,,,-99.99,0.0,Linux-Irox,2013-02-04 20:17:00,
2013-02-04 12:27:00,65.5,31.3,29.68,West,270,2.5,2.5,5,0.00,,,-99.99,0.0,Linux-Irox,2013-02-04 20:27:00,
2013-02-04 12:31:00,64.9,30.7,29.68,WSW,247,5.8,7.4,5,0.00,,,-99.99,0.0,Linux-Irox,2013-02-04 20:31:00,
2013-02-04 12:37:00,64.6,30.4,29.67,WSW,247,1.8,3.6,5,0.00,,,-99.99,0.0,Linux-Irox,2013-02-04 20:37:00,
2013-02-04 12:46:00,64.0,29.8,29.67,WSW,247,3.6,8.5,5,0.00,,,-99.99,0.0,Linux-Irox,2013-02-04 20:46:00,
2013-02-04 12:47:00,64.2,30.0,29.67,West,270,1.8,3.8,5,0.00,,,-99.99,0.0,Linux-Irox,2013-02-04 20:47:00,
2013-02-04 12:57:00,64.2,30.0,29.66,West,270,3.1,3.1,5,0.00,,,-99.99,0.0,Linux-Irox,2013-02-04 20:57:00,
2013-02-04 13:01:00,64.2,30.0,29.66,SW,225,6.7,8.3,5,0.00,,,-99.99,0.0,Linux-Irox,2013-02-04 21:01:00,
2013-02-04 13:07:00,64.2,30.0,29.66,SW,225,3.1,3.6,5,0.00,,,-99.99,0.0,Linux-Irox,2013-02-04 21:07:00,
2013-02-04 13:16:00,63.3,29.1,29.66,West,270,6.5,6.5,5,0.00,,,-99.99,0.0,Linux-Irox,2013-02-04 21:16:00,
2013-02-04 13:17:00,63.3,29.1,29.65,West,270,2.9,2.9,5,0.00,,,-99.99,0.0,Linux-Irox,2013-02-04 21:17:00,
2013-02-04 13:27:00,63.3,29.1,29.65,WSW,247,3.1,3.1,5,0.00,,,-99.99,0.0,Linux-Irox,2013-02-04 21:27:00,
2013-02-04 13:31:00,63.1,28.9,29.65,SW,225,7.4,9.8,5,0.00,,,-99.99,0.0,Linux-Irox,2013-02-04 21:31:00,
2013-02-04 13:37:00,63.0,28.8,29.64,NW,315,3.1,3.6,5,0.00,,,-99.99,0.0,Linux-Irox,2013-02-04 21:37:00,
2013-02-04 13:46:00,62.8,28.6,29.64,NNE,22,4.9,0.0,5,0.00,,,-99.99,0.0,Linux-Irox,2013-02-04 21:46:00,
2013-02-04 13:47:00,62.6,28.4,29.64,West,270,2.0,2.9,5,0.00,,,-99.99,0.0,Linux-Irox,2013-02-04 21:47:00,
2013-02-04 13:57:00,62.8,28.6,29.65,WSW,247,2.2,4.9,5,0.00,,,-99.99,0.0,Linux-Irox,2013-02-04 21:57:00,
2013-02-04 14:01:00,62.8,28.6,29.65,WSW,247,5.6,8.0,5,0.00,,,-99.99,0.0,Linux-Irox,2013-02-04 22:01:00,
2013-02-04 14:07:00,62.6,28.4,29.65,West,270,2.9,5.8,5,0.00,,,-99.99,0.0,Linux-Irox,2013-02-04 22:07:00,
2013-02-04 14:16:00,62.8,28.6,29.65,West,270,6.0,8.7,5,0.00,,,-99.99,0.0,Linux-Irox,2013-02-04 22:16:00,
2013-02-04 14:17:00,62.8,28.6,29.64,West,270,2.7,3.1,5,0.00,,,-99.99,0.0,Linux-Irox,2013-02-04 22:17:00,
2013-02-04 14:27:00,61.9,27.7,29.64,WSW,247,2.5,3.8,5,0.00,,,-99.99,0.0,Linux-Irox,2013-02-04 22:27:00,
2013-02-04 14:31:00,61.7,27.5,29.64,WSW,247,6.0,10.7,5,0.00,,,-99.99,0.0,Linux-Irox,2013-02-04 22:31:00,
2013-02-04 14:37:00,61.7,27.5,29.62,WSW,247,2.7,3.3,5,0.00,,,-99.99,0.0,Linux-Irox,2013-02-04 22:37:00,
2013-02-04 14:46:00,61.9,27.7,29.62,WNW,292,4.9,6.0,5,0.00,,,-99.99,0.0,Linux-Irox,2013-02-04 22:46:00,
2013-02-04 14:47:00,61.7,27.5,29.62,WNW,292,2.5,3.8,5,0.00,,,-99.99,0.0,Linux-Irox,2013-02-04 22:47:00,
2013-02-04 14:57:00,61.2,27.0,29.61,West,270,2.2,2.9,5,0.00,,,-99.99,0.0,Linux-Irox,2013-02-04 22:57:00,
2013-02-04 15:01:00,61.0,26.8,29.61,WSW,247,6.0,6.7,5,0.00,,,-99.99,0.0,Linux-Irox,2013-02-04 23:01:00,
2013-02-04 15:07:00,60.8,26.6,29.61,WSW,247,2.5,3.8,5,0.00,,,-99.99,0.0,Linux-Irox,2013-02-04 23:07:00,
2013-02-04 15:16:00,59.9,25.7,29.61,South,180,4.2,6.5,5,0.00,,,-99.99,0.0,Linux-Irox,2013-02-04 23:16:00,
2013-02-04 15:17:00,59.9,25.7,29.61,WSW,247,2.0,3.8,5,0.00,,,-99.99,0.0,Linux-Irox,2013-02-04 23:17:00,
2013-02-04 15:27:00,59.7,25.5,29.61,WSW,247,2.5,4.5,5,0.00,,,-99.99,0.0,Linux-Irox,2013-02-04 23:27:00,
2013-02-04 15:31:00,59.4,25.2,29.61,WSW,247,5.6,6.5,5,0.00,,,-99.99,0.0,Linux-Irox,2013-02-04 23:31:00,
2013-02-04 15:37:00,59.0,24.8,29.61,SW,225,1.8,1.8,5,0.00,,,-99.99,0.0,Linux-Irox,2013-02-04 23:37:00,
2013-02-04 15:46:00,59.5,25.3,29.61,West,270,4.0,6.5,5,0.00,,,-99.99,0.0,Linux-Irox,2013-02-04 23:46:00,
2013-02-04 15:47:00,59.5,25.3,29.61,WSW,247,1.8,2.0,5,0.00,,,-99.99,0.0,Linux-Irox,2013-02-04 23:47:00,
2013-02-04 15:57:00,59.5,25.3,29.62,WSW,247,1.8,1.8,5,0.00,,,-99.99,0.0,Linux-Irox,2013-02-04 23:57:00,
2013-02-04 16:01:00,59.2,25.0,29.62,West,270,3.6,0.0,5,0.00,,,-99.99,0.0,Linux-Irox,2013-02-05 00:01:00,
2013-02-04 16:07:00,58.5,24.3,29.62,WSW,247,0.9,0.0,5,0.00,,,-99.99,0.0,Linux-Irox,2013-02-05 00:07:00,
2013-02-04 16:16:00,58.3,24.1,29.62,SW,225,2.2,5.1,5,0.00,,,-99.99,0.0,Linux-Irox,2013-02-05 00:16:00,
2013-02-04 16:17:00,58.3,24.1,29.62,West,270,1.1,2.2,5,0.00,,,-99.99,0.0,Linux-Irox,2013-02-05 00:17:00,
2013-02-04 16:27:00,57.2,23.0,29.62,South,180,0.7,0.0,5,0.00,,,-99.99,0.0,Linux-Irox,2013-02-05 00:27:00,
2013-02-04 16:31:00,56.8,22.6,29.62,SSW,202,0.4,0.0,5,0.00,,,-99.99,0.0,Linux-Irox,2013-02-05 00:31:00,
2013-02-04 16:37:00,56.5,22.3,29.63,West,270,0.4,1.3,5,0.00,,,-99.99,0.0,Linux-Irox,2013-02-05 00:37:00,
2013-02-04 16:46:00,55.8,21.6,29.63,SSE,157,1.8,0.0,5,0.00,,,-99.99,0.0,Linux-Irox,2013-02-05 00:46:00,
2013-02-04 16:47:00,55.6,21.4,29.63,SW,225,0.7,0.0,5,0.00,,,-99.99,0.0,Linux-Irox,2013-02-05 00:47:00,
2013-02-04 16:57:00,54.9,20.7,29.63,NNW,337,0.0,0.0,5,0.00,,,-99.99,0.0,Linux-Irox,2013-02-05 00:57:00,
2013-02-04 17:01:00,54.7,22.3,29.63,NNW,337,0.0,0.0,10,0.00,,,-99.99,0.0,Linux-Irox,2013-02-05 01:01:00,
2013-02-04 17:07:00,54.3,21.9,29.63,NNE,22,0.0,0.0,10,0.00,,,-99.99,0.0,Linux-Irox,2013-02-05 01:07:00,
2013-02-04 17:16:00,53.6,21.2,29.63,NNE,22,0.0,0.0,10,0.00,,,-99.99,0.0,Linux-Irox,2013-02-05 01:16:00,
2013-02-04 17:17:00,53.6,21.2,29.63,NNE,22,0.0,0.0,10,0.00,,,-99.99,0.0,Linux-Irox,2013-02-05 01:17:00,
2013-02-04 17:27:00,52.5,20.1,29.63,NNE,22,0.0,0.0,10,0.00,,,-99.99,0.0,Linux-Irox,2013-02-05 01:27:00,
2013-02-04 17:31:00,52.2,19.8,29.63,NNE,22,0.0,0.0,10,0.00,,,-99.99,0.0,Linux-Irox,2013-02-05 01:31:00,
2013-02-04 17:37:00,52.0,19.6,29.64,NNE,22,0.0,0.0,10,0.00,,,-99.99,0.0,Linux-Irox,2013-02-05 01:37:00,
2013-02-04 17:46:00,51.3,19.2,29.64,NE,45,0.0,0.0,11,0.00,,,-99.99,0.0,Linux-Irox,2013-02-05 01:46:00,
2013-02-04 17:47:00,51.1,19.8,29.64,NNE,22,0.0,0.0,13,0.00,,,-99.99,0.0,Linux-Irox,2013-02-05 01:47:00,
2013-02-04 17:57:00,50.5,19.2,29.63,NNE,22,0.0,0.0,13,0.00,,,-99.99,0.0,Linux-Irox,2013-02-05 01:57:00,
2013-02-04 18:01:00,50.4,19.0,29.63,NNE,22,0.0,0.0,13,0.00,,,-99.99,0.0,Linux-Irox,2013-02-05 02:01:00,
2013-02-04 18:07:00,50.0,18.7,29.63,NNW,337,0.0,0.0,13,0.00,,,-99.99,0.0,Linux-Irox,2013-02-05 02:07:00,
2013-02-04 18:16:00,49.6,18.7,29.63,NE,45,0.0,0.0,14,0.00,,,-99.99,0.0,Linux-Irox,2013-02-05 02:16:00,
2013-02-04 18:17:00,49.6,18.7,29.63,NNE,22,0.0,0.0,14,0.00,,,-99.99,0.0,Linux-Irox,2013-02-05 02:17:00,
2013-02-04 18:27:00,49.3,19.0,29.63,North,0,0.0,0.0,16,0.00,,,-99.99,0.0,Linux-Irox,2013-02-05 02:27:00,
2013-02-04 18:31:00,49.5,20.3,29.63,NNW,337,0.0,0.0,19,0.00,,,-99.99,0.0,Linux-Irox,2013-02-05 02:31:00,
2013-02-04 18:37:00,49.1,18.9,29.62,NNE,22,0.0,0.0,16,0.00,,,-99.99,0.0,Linux-Irox,2013-02-05 02:37:00,
2013-02-04 18:46:00,48.4,19.2,29.62,ENE,67,0.0,0.0,19,0.00,,,-99.99,0.0,Linux-Irox,2013-02-05 02:46:00,
2013-02-04 18:47:00,48.4,19.2,29.62,ENE,67,0.0,0.0,19,0.00,,,-99.99,0.0,Linux-Irox,2013-02-05 02:47:00,
2013-02-04 18:57:00,48.0,18.9,29.62,NNE,22,0.0,0.0,19,0.00,,,-99.99,0.0,Linux-Irox,2013-02-05 02:57:00,
2013-02-04 19:01:00,48.0,19.2,29.62,NW,315,0.0,0.0,20,0.00,,,-99.99,0.0,Linux-Irox,2013-02-05 03:01:00,
2013-02-04 19:07:00,47.8,18.7,29.62,ENE,67,0.0,0.0,19,0.00,,,-99.99,0.0,Linux-Irox,2013-02-05 03:07:00,
2013-02-04 19:16:00,47.7,19.2,29.62,NNW,337,0.0,0.0,21,0.00,,,-99.99,0.0,Linux-Irox,2013-02-05 03:16:00,
2013-02-04 19:17:00,47.7,19.2,29.61,NNE,22,0.0,0.0,21,0.00,,,-99.99,0.0,Linux-Irox,2013-02-05 03:17:00,
2013-02-04 19:27:00,47.5,19.0,29.61,ENE,67,0.0,0.0,21,0.00,,,-99.99,0.0,Linux-Irox,2013-02-05 03:27:00,
2013-02-04 19:31:00,47.5,19.0,29.61,NW,315,0.0,0.0,21,0.00,,,-99.99,0.0,Linux-Irox,2013-02-05 03:31:00,
2013-02-04 19:37:00,47.1,18.7,29.62,ENE,67,0.0,0.0,21,0.00,,,-99.99,0.0,Linux-Irox,2013-02-05 03:37:00,
2013-02-04 19:46:00,46.9,18.5,29.62,ENE,67,0.0,0.0,21,0.00,,,-99.99,0.0,Linux-Irox,2013-02-05 03:46:00,
2013-02-04 19:47:00,46.9,18.5,29.62,ENE,67,0.0,0.0,21,0.00,,,-99.99,0.0,Linux-Irox,2013-02-05 03:47:00,
2013-02-04 19:57:00,46.8,18.3,29.61,ENE,67,0.0,0.0,21,0.00,,,-99.99,0.0,Linux-Irox,2013-02-05 03:57:00,
2013-02-04 20:01:00,46.8,18.7,29.61,ENE,67,0.0,0.0,22,0.00,,,-99.99,0.0,Linux-Irox,2013-02-05 04:01:00,
2013-02-04 20:07:00,46.4,18.0,29.61,WNW,292,0.0,0.0,21,0.00,,,-99.99,0.0,Linux-Irox,2013-02-05 04:07:00,
2013-02-04 20:17:00,46.2,18.5,29.62,NNE,22,0.0,0.0,23,0.00,,,-99.99,0.0,Linux-Irox,2013-02-05 04:17:00,
2013-02-04 20:27:00,45.9,18.5,29.62,NE,45,0.0,0.0,24,0.00,,,-99.99,0.0,Linux-Irox,2013-02-05 04:27:00,
2013-02-04 20:37:00,45.9,18.5,29.61,NE,45,0.0,0.0,24,0.00,,,-99.99,0.0,Linux-Irox,2013-02-05 04:37:00,
2013-02-04 20:47:00,46.6,19.6,29.61,ENE,67,0.0,0.0,25,0.00,,,-99.99,0.0,Linux-Irox,2013-02-05 04:47:00,
2013-02-04 20:57:00,46.2,19.6,29.61,ENE,67,0.0,0.0,26,0.00,,,-99.99,0.0,Linux-Irox,2013-02-05 04:57:00,
2013-02-04 21:07:00,46.2,19.6,29.61,NNW,337,0.0,0.0,26,0.00,,,-99.99,0.0,Linux-Irox,2013-02-05 05:07:00,
2013-02-04 21:17:00,46.2,20.3,29.62,NNE,22,0.0,0.0,28,0.00,,,-99.99,0.0,Linux-Irox,2013-02-05 05:17:00,
2013-02-04 21:27:00,46.2,20.3,29.62,NE,45,0.0,0.0,28,0.00,,,-99.99,0.0,Linux-Irox,2013-02-05 05:27:00,
2013-02-04 21:37:00,46.2,20.3,29.61,ENE,67,0.0,0.0,28,0.00,,,-99.99,0.0,Linux-Irox,2013-02-05 05:37:00,
2013-02-04 21:47:00,46.0,20.1,29.61,NW,315,0.0,0.0,28,0.00,,,-99.99,0.0,Linux-Irox,2013-02-05 05:47:00,
2013-02-04 21:57:00,46.2,20.7,29.61,ENE,67,0.0,0.0,29,0.00,,,-99.99,0.0,Linux-Irox,2013-02-05 05:57:00,
2013-02-04 22:07:00,46.2,20.3,29.61,NNW,337,0.0,0.0,28,0.00,,,-99.99,0.0,Linux-Irox,2013-02-05 06:07:00,
2013-02-04 22:17:00,45.9,19.9,29.62,ENE,67,0.0,0.0,28,0.00,,,-99.99,0.0,Linux-Irox,2013-02-05 06:17:00,
2013-02-04 22:27:00,45.7,20.1,29.62,North,0,0.0,0.0,29,0.00,,,-99.99,0.0,Linux-Irox,2013-02-05 06:27:00,
2013-02-04 22:37:00,45.1,19.2,29.62,ENE,67,0.0,0.0,28,0.00,,,-99.99,0.0,Linux-Irox,2013-02-05 06:37:00,
2013-02-04 22:47:00,45.0,19.4,29.62,ENE,67,0.0,0.0,29,0.00,,,-99.99,0.0,Linux-Irox,2013-02-05 06:47:00,
2013-02-04 22:57:00,44.8,19.2,29.62,ENE,67,0.0,0.0,29,0.00,,,-99.99,0.0,Linux-Irox,2013-02-05 06:57:00,
2013-02-04 23:07:00,44.4,19.2,29.62,NNE,22,0.0,0.0,30,0.00,,,-99.99,0.0,Linux-Irox,2013-02-05 07:07:00,
2013-02-04 23:17:00,44.4,19.2,29.62,NE,45,0.0,0.0,30,0.00,,,-99.99,0.0,Linux-Irox,2013-02-05 07:17:00,
2013-02-04 23:27:00,44.2,19.0,29.62,North,0,0.0,0.0,30,0.00,,,-99.99,0.0,Linux-Irox,2013-02-05 07:27:00,
2013-02-04 23:37:00,44.2,19.4,29.62,NNE,22,0.0,0.0,31,0.00,,,-99.99,0.0,Linux-Irox,2013-02-05 07:37:00,
2013-02-04 23:47:00,43.9,19.0,29.62,ENE,67,0.0,0.0,31,0.00,,,-99.99,0.0,Linux-Irox,2013-02-05 07:47:00,
2013-02-04 23:57:00,43.3,18.1,29.64,ENE,67,0.0,0.0,30,0.00,,,-99.99,0.0,Linux-Irox,2013-02-05 07:57:00,